createdAt,value
2018-03-06T00:00:53.854Z,21.90
2018-03-06T00:03:21.259Z,21.40
2018-03-06T00:05:48.917Z,21.40
2018-03-06T00:08:16.322Z,23.07
2018-03-06T00:10:43.750Z,22.50
2018-03-06T00:13:11.161Z,24.17
2018-03-06T00:15:38.595Z,22.30
2018-03-06T00:18:06.417Z,22.47
2018-03-06T00:20:33.844Z,22.57
2018-03-06T00:23:01.278Z,24.40
2018-03-06T00:25:28.674Z,23.60
2018-03-06T00:27:56.098Z,23.20
2018-03-06T00:30:23.526Z,23.30
2018-03-06T00:32:50.938Z,23.80
2018-03-06T00:35:18.372Z,25.17
2018-03-06T00:37:45.784Z,24.40
2018-03-06T00:40:13.202Z,24.30
2018-03-06T00:42:40.986Z,24.40
2018-03-06T00:45:08.425Z,24.60
2018-03-06T00:47:35.858Z,24.40
2018-03-06T00:50:03.276Z,25.20
2018-03-06T00:52:30.686Z,25.90
2018-03-06T00:54:58.118Z,27.30
2018-03-06T00:57:25.525Z,25.33
2018-03-06T00:59:52.955Z,24.73
2018-03-06T01:02:20.363Z,25.13
2018-03-06T01:04:47.814Z,25.67
2018-03-06T01:07:15.221Z,24.53
2018-03-06T01:09:42.650Z,26.70
2018-03-06T01:12:10.092Z,24.77
2018-03-06T01:14:37.506Z,26.50
2018-03-06T01:17:04.914Z,26.53
2018-03-06T01:19:32.338Z,27.43
2018-03-06T01:21:59.742Z,26.23
2018-03-06T01:24:27.177Z,25.07
2018-03-06T01:26:54.589Z,27.13
2018-03-06T01:29:21.998Z,26.60
2018-03-06T01:31:49.433Z,27.13
2018-03-06T01:34:16.838Z,26.90
2018-03-06T01:36:44.254Z,27.20
2018-03-06T01:39:11.662Z,27.20
2018-03-06T01:41:39.082Z,26.67
2018-03-06T01:44:06.506Z,25.77
2018-03-06T01:46:33.930Z,27.23
2018-03-06T01:49:01.342Z,26.40
2018-03-06T01:51:28.757Z,27.13
2018-03-06T01:53:56.194Z,26.90
2018-03-06T01:56:23.611Z,27.87
2018-03-06T01:58:51.023Z,28.13
2018-03-06T02:01:18.499Z,27.27
2018-03-06T02:03:45.933Z,28.40
2018-03-06T02:06:13.345Z,27.77
2018-03-06T02:08:40.757Z,27.40
2018-03-06T02:11:08.170Z,28.03
2018-03-06T02:13:35.591Z,28.00
2018-03-06T02:16:03.006Z,28.23
2018-03-06T02:18:30.419Z,27.10
2018-03-06T02:20:57.840Z,28.47
2018-03-06T02:23:25.266Z,27.20
2018-03-06T02:25:52.678Z,28.10
2018-03-06T02:28:20.094Z,28.50
2018-03-06T02:30:47.502Z,28.53
2018-03-06T02:33:14.923Z,28.30
2018-03-06T02:35:42.333Z,28.40
2018-03-06T02:38:09.755Z,27.50
2018-03-06T02:40:37.161Z,27.80
2018-03-06T02:43:04.578Z,28.03
2018-03-06T02:45:31.990Z,28.70
2018-03-06T02:47:59.414Z,26.60
2018-03-06T02:50:26.830Z,27.50
2018-03-06T02:52:54.246Z,27.67
2018-03-06T02:55:21.670Z,28.77
2018-03-06T02:57:49.077Z,26.27
2018-03-06T03:00:16.493Z,27.23
2018-03-06T03:02:43.915Z,27.33
2018-03-06T03:05:11.329Z,27.50
2018-03-06T03:07:38.741Z,27.90
2018-03-06T03:10:06.169Z,26.80
2018-03-06T03:12:33.573Z,27.60
2018-03-06T03:15:00.997Z,27.63
2018-03-06T03:17:28.410Z,27.93
2018-03-06T03:19:55.826Z,27.70
2018-03-06T03:22:23.234Z,27.53
2018-03-06T03:24:50.661Z,28.60
2018-03-06T03:27:18.080Z,27.50
2018-03-06T03:29:45.513Z,29.10
2018-03-06T03:32:12.929Z,28.70
2018-03-06T03:34:40.337Z,27.90
2018-03-06T03:37:07.767Z,27.40
2018-03-06T03:39:35.182Z,27.57
2018-03-06T03:42:02.610Z,27.10
2018-03-06T03:44:30.022Z,28.37
2018-03-06T03:46:57.434Z,28.40
2018-03-06T03:49:24.873Z,27.90
2018-03-06T03:51:52.294Z,27.80
2018-03-06T03:54:19.709Z,29.00
2018-03-06T03:56:47.130Z,28.40
2018-03-06T03:59:14.534Z,26.57
2018-03-06T04:01:41.956Z,28.50
2018-03-06T04:04:09.377Z,27.70
2018-03-06T04:06:36.846Z,27.53
2018-03-06T04:09:04.262Z,27.37
2018-03-06T04:11:31.666Z,28.63
2018-03-06T04:13:59.081Z,29.70
2018-03-06T04:16:26.505Z,27.20
2018-03-06T04:18:53.926Z,27.77
2018-03-06T04:21:21.334Z,28.57
2018-03-06T04:23:48.754Z,28.40
2018-03-06T04:26:16.162Z,28.40
2018-03-06T04:28:43.577Z,25.80
2018-03-06T04:31:10.995Z,29.67
2018-03-06T04:33:38.402Z,28.23
2018-03-06T04:36:05.801Z,28.73
2018-03-06T04:38:33.209Z,29.10
2018-03-06T04:41:00.618Z,28.03
2018-03-06T04:43:28.298Z,29.03
2018-03-06T04:45:55.705Z,29.43
2018-03-06T04:48:23.113Z,30.80
2018-03-06T04:50:50.537Z,28.10
2018-03-06T04:53:17.946Z,28.50
2018-03-06T04:55:45.366Z,29.60
2018-03-06T04:58:12.777Z,28.80
2018-03-06T05:00:40.195Z,29.20
2018-03-06T05:03:07.614Z,27.20
2018-03-06T05:05:35.029Z,28.63
2018-03-06T05:08:02.439Z,28.30
2018-03-06T05:10:29.854Z,27.53
2018-03-06T05:12:57.262Z,28.40
2018-03-06T05:15:24.678Z,27.97
2018-03-06T05:17:52.086Z,28.60
2018-03-06T05:20:19.505Z,27.53
2018-03-06T05:22:46.910Z,30.17
2018-03-06T05:25:14.329Z,27.00
2018-03-06T05:27:41.741Z,29.63
2018-03-06T05:30:09.150Z,28.83
2018-03-06T05:32:36.570Z,29.30
2018-03-06T05:35:03.985Z,28.90
2018-03-06T05:37:31.414Z,30.10
2018-03-06T05:39:58.838Z,29.40
2018-03-06T05:42:32.126Z,28.13
2018-03-06T05:44:59.535Z,28.37
2018-03-06T05:47:27.006Z,31.93
2018-03-06T05:49:54.421Z,29.03
2018-03-06T05:52:22.733Z,29.70
2018-03-06T05:54:50.158Z,30.90
2018-03-06T05:57:17.582Z,31.57
2018-03-06T05:59:44.989Z,29.80
2018-03-06T06:02:12.429Z,30.13
2018-03-06T06:04:39.856Z,31.00
2018-03-06T06:07:07.277Z,31.03
2018-03-06T06:09:34.736Z,31.70
2018-03-06T06:12:02.158Z,30.80
2018-03-06T06:14:29.626Z,31.43
2018-03-06T06:16:57.168Z,31.93
2018-03-06T06:19:24.569Z,28.23
2018-03-06T06:21:51.982Z,31.50
2018-03-06T06:24:19.393Z,30.63
2018-03-06T06:26:46.823Z,30.00
2018-03-06T06:29:14.229Z,30.70
2018-03-06T06:31:41.648Z,32.20
2018-03-06T06:34:09.062Z,33.27
2018-03-06T06:36:36.468Z,31.17
2018-03-06T06:39:03.927Z,32.20
2018-03-06T06:41:31.333Z,34.80
2018-03-06T06:43:58.750Z,31.20
2018-03-06T06:46:26.158Z,33.37
2018-03-06T06:48:53.590Z,32.90
2018-03-06T06:51:21.002Z,33.10
2018-03-06T06:53:48.407Z,34.17
2018-03-06T06:56:15.821Z,34.37
2018-03-06T06:58:43.225Z,34.23
2018-03-06T07:01:10.633Z,34.80
2018-03-06T07:03:38.046Z,33.63
2018-03-06T07:06:05.467Z,34.13
2018-03-06T07:08:32.878Z,33.90
2018-03-06T07:11:00.298Z,34.73
2018-03-06T07:13:27.706Z,34.20
2018-03-06T07:15:55.121Z,34.13
2018-03-06T07:18:22.530Z,32.13
2018-03-06T07:20:49.951Z,34.70
2018-03-06T07:23:17.354Z,35.30
2018-03-06T07:25:44.762Z,33.17
2018-03-06T07:28:12.165Z,33.60
2018-03-06T07:30:39.578Z,32.67
2018-03-06T07:33:07.013Z,34.97
2018-03-06T07:35:34.435Z,34.17
2018-03-06T07:38:01.842Z,34.40
2018-03-06T07:40:29.246Z,34.87
2018-03-06T07:42:56.674Z,35.57
2018-03-06T07:45:24.105Z,33.67
2018-03-06T07:47:51.515Z,32.80
2018-03-06T07:50:18.922Z,35.67
2018-03-06T07:52:46.346Z,36.50
2018-03-06T07:55:13.755Z,35.67
2018-03-06T07:57:41.186Z,35.77
2018-03-06T08:00:08.660Z,37.57
2018-03-06T08:02:36.101Z,35.73
2018-03-06T08:05:03.516Z,36.90
2018-03-06T08:07:30.933Z,36.30
2018-03-06T08:09:58.337Z,36.70
2018-03-06T08:12:25.758Z,36.03
2018-03-06T08:14:53.166Z,34.73
2018-03-06T08:17:20.569Z,34.90
2018-03-06T08:19:47.986Z,36.23
2018-03-06T08:22:15.381Z,34.30
2018-03-06T08:24:42.806Z,34.97
2018-03-06T08:27:10.213Z,35.70
2018-03-06T08:29:37.626Z,37.23
2018-03-06T08:32:05.034Z,35.97
2018-03-06T08:34:32.441Z,39.23
2018-03-06T08:36:59.845Z,35.57
2018-03-06T08:39:27.261Z,36.77
2018-03-06T08:41:54.665Z,37.53
2018-03-06T08:44:22.084Z,38.13
2018-03-06T08:46:49.494Z,36.73
2018-03-06T08:49:16.913Z,37.63
2018-03-06T08:51:44.323Z,37.00
2018-03-06T08:54:11.725Z,37.27
2018-03-06T08:56:39.142Z,35.87
2018-03-06T08:59:06.550Z,36.97
2018-03-06T09:01:33.961Z,37.10
2018-03-06T09:04:01.370Z,36.97
2018-03-06T09:06:28.786Z,38.60
2018-03-06T09:08:56.205Z,36.27
2018-03-06T09:11:23.621Z,37.20
2018-03-06T09:13:51.030Z,38.63
2018-03-06T09:16:18.446Z,37.47
2018-03-06T09:18:45.862Z,35.67
2018-03-06T09:21:13.277Z,36.33
2018-03-06T09:23:40.692Z,36.37
2018-03-06T09:26:08.109Z,34.93
2018-03-06T09:28:35.533Z,37.50
2018-03-06T09:31:02.974Z,35.80
2018-03-06T09:33:30.393Z,37.73
2018-03-06T09:35:57.829Z,39.40
2018-03-06T09:38:25.250Z,37.57
2018-03-06T09:40:52.674Z,37.77
2018-03-06T09:43:20.110Z,37.30
2018-03-06T09:45:47.518Z,37.63
2018-03-06T09:48:14.958Z,35.90
2018-03-06T09:50:42.400Z,36.07
2018-03-06T09:53:09.826Z,38.83
2018-03-06T09:55:37.286Z,39.47
2018-03-06T09:58:04.760Z,37.63
2018-03-06T10:00:32.190Z,35.33
2018-03-06T10:02:59.693Z,33.83
2018-03-06T10:05:27.110Z,34.13
2018-03-06T10:07:54.522Z,35.37
2018-03-06T10:10:21.933Z,32.93
2018-03-06T10:12:49.349Z,36.37
2018-03-06T10:15:16.765Z,36.40
2018-03-06T10:17:44.173Z,34.70
2018-03-06T10:20:11.643Z,34.30
2018-03-06T10:22:39.066Z,34.97
2018-03-06T10:25:06.489Z,36.40
2018-03-06T10:27:33.949Z,33.43
2018-03-06T10:30:01.379Z,34.20
2018-03-06T10:32:28.808Z,35.77
2018-03-06T10:34:56.250Z,35.70
2018-03-06T10:37:23.679Z,35.80
2018-03-06T10:39:51.128Z,34.63
2018-03-06T10:42:18.533Z,35.37
2018-03-06T10:44:45.955Z,36.10
2018-03-06T10:47:13.387Z,34.60
2018-03-06T10:49:40.804Z,35.10
2018-03-06T10:52:08.237Z,35.77
2018-03-06T10:54:35.645Z,33.33
2018-03-06T10:57:03.085Z,33.23
2018-03-06T10:59:30.515Z,33.90
2018-03-06T11:01:57.936Z,34.30
2018-03-06T11:04:25.359Z,34.70
2018-03-06T11:06:52.767Z,31.13
2018-03-06T11:09:20.176Z,31.50
2018-03-06T11:11:47.601Z,31.20
2018-03-06T11:14:15.037Z,31.03
2018-03-06T11:16:42.454Z,33.50
2018-03-06T11:19:09.871Z,32.30
2018-03-06T11:21:37.294Z,29.20
2018-03-06T11:24:04.738Z,30.30
2018-03-06T11:26:32.155Z,28.67
2018-03-06T11:28:59.594Z,29.70
2018-03-06T11:31:27.009Z,31.60
2018-03-06T11:33:54.436Z,30.50
2018-03-06T11:36:21.841Z,31.90
2018-03-06T11:38:49.278Z,30.33
2018-03-06T11:41:16.716Z,29.83
2018-03-06T11:43:44.139Z,26.97
2018-03-06T11:46:11.591Z,29.57
2018-03-06T11:48:39.010Z,30.13
2018-03-06T11:51:06.442Z,31.90
2018-03-06T11:53:33.861Z,28.80
2018-03-06T11:56:01.344Z,28.63
2018-03-06T11:58:28.726Z,28.80
2018-03-06T12:00:56.137Z,28.47
2018-03-06T12:03:23.562Z,27.07
2018-03-06T12:05:50.989Z,25.30
2018-03-06T12:08:18.410Z,26.57
2018-03-06T12:10:45.830Z,26.00
2018-03-06T12:13:13.262Z,27.00
2018-03-06T12:15:40.704Z,25.50
2018-03-06T12:18:08.123Z,24.20
2018-03-06T12:20:35.533Z,25.00
2018-03-06T12:23:02.950Z,25.33
2018-03-06T12:25:30.377Z,28.27
2018-03-06T12:27:57.813Z,27.87
2018-03-06T12:30:25.267Z,28.27
2018-03-06T12:32:52.686Z,27.63
2018-03-06T12:35:20.123Z,29.40
2018-03-06T12:37:47.536Z,28.40
2018-03-06T12:40:14.968Z,28.70
2018-03-06T12:42:42.386Z,27.40
2018-03-06T12:45:09.818Z,27.50
2018-03-06T12:47:37.255Z,28.00
2018-03-06T12:50:04.679Z,24.83
2018-03-06T12:52:32.138Z,24.57
2018-03-06T12:54:59.608Z,26.70
2018-03-06T12:57:26.992Z,25.40
2018-03-06T12:59:54.405Z,26.60
2018-03-06T13:02:21.821Z,26.87
2018-03-06T13:04:49.238Z,25.50
2018-03-06T13:07:16.666Z,28.40
2018-03-06T13:09:44.085Z,28.57
2018-03-06T13:12:11.510Z,29.10
2018-03-06T13:14:38.949Z,27.37
2018-03-06T13:17:06.394Z,26.30
2018-03-06T13:19:33.809Z,24.70
2018-03-06T13:22:01.222Z,27.60
2018-03-06T13:24:28.633Z,25.17
2018-03-06T13:26:56.048Z,26.23
2018-03-06T13:29:23.476Z,25.27
2018-03-06T13:31:50.890Z,27.40
2018-03-06T13:34:18.313Z,26.13
2018-03-06T13:36:45.733Z,27.50
2018-03-06T13:39:13.149Z,26.67
2018-03-06T13:41:40.565Z,27.50
2018-03-06T13:44:08.847Z,27.67
2018-03-06T13:46:39.190Z,27.40
2018-03-06T13:49:06.618Z,28.50
2018-03-06T13:51:35.093Z,26.03
2018-03-06T13:54:02.509Z,29.47
2018-03-06T13:56:30.014Z,28.00
2018-03-06T13:58:57.426Z,27.37
2018-03-06T14:01:24.878Z,27.37
2018-03-06T14:03:52.290Z,25.13
2018-03-06T14:06:19.747Z,27.27
2018-03-06T14:08:47.154Z,29.43
2018-03-06T14:11:14.674Z,26.93
2018-03-06T14:13:42.198Z,29.37
2018-03-06T14:16:09.638Z,28.10
2018-03-06T14:18:37.053Z,26.80
2018-03-06T14:21:04.494Z,26.20
2018-03-06T14:23:31.895Z,28.30
2018-03-06T14:25:59.358Z,29.60
2018-03-06T14:28:26.773Z,27.27
2018-03-06T14:30:54.203Z,27.37
2018-03-06T14:33:21.618Z,29.20
2018-03-06T14:35:49.036Z,28.97
2018-03-06T14:38:16.463Z,26.80
2018-03-06T14:40:43.870Z,28.83
2018-03-06T14:43:11.350Z,25.77
2018-03-06T14:45:38.766Z,26.10
2018-03-06T14:48:06.210Z,25.50
2018-03-06T14:50:34.449Z,27.93
2018-03-06T14:53:01.866Z,26.33
2018-03-06T14:55:29.397Z,27.53
2018-03-06T14:57:56.905Z,25.47
2018-03-06T15:00:24.319Z,26.60
2018-03-06T15:02:51.744Z,26.73
2018-03-06T15:05:19.162Z,30.10
2018-03-06T15:07:47.168Z,28.97
2018-03-06T15:10:14.578Z,26.10
2018-03-06T15:12:42.042Z,26.07
2018-03-06T15:15:09.547Z,26.30
2018-03-06T15:17:37.062Z,28.23
2018-03-06T15:20:04.465Z,29.93
2018-03-06T15:22:31.873Z,29.77
2018-03-06T15:24:59.410Z,29.43
2018-03-06T15:27:26.825Z,30.77
2018-03-06T15:29:54.253Z,30.20
2018-03-06T15:32:21.666Z,29.97
2018-03-06T15:34:49.081Z,32.60
2018-03-06T15:37:22.220Z,33.70
2018-03-06T15:39:49.681Z,32.00
2018-03-06T15:42:17.124Z,29.63
2018-03-06T15:44:44.570Z,29.73
2018-03-06T15:47:12.012Z,28.03
2018-03-06T15:49:39.462Z,26.97
2018-03-06T15:52:06.906Z,27.10
2018-03-06T15:54:34.364Z,26.30
2018-03-06T15:57:01.811Z,25.53
2018-03-06T15:59:29.519Z,25.03
2018-03-06T16:01:56.962Z,25.13
2018-03-06T16:04:24.459Z,24.47
2018-03-06T16:06:51.928Z,24.33
2018-03-06T16:09:19.367Z,22.87
2018-03-06T16:11:46.854Z,22.30
2018-03-06T16:14:14.310Z,23.37
2018-03-06T16:16:41.764Z,22.80
2018-03-06T16:19:09.226Z,24.27
2018-03-06T16:21:36.675Z,24.10
2018-03-06T16:24:04.115Z,24.77
2018-03-06T16:26:31.569Z,23.63
2018-03-06T16:28:59.018Z,22.83
2018-03-06T16:31:26.463Z,20.90
2018-03-06T16:33:54.144Z,20.67
2018-03-06T16:36:21.586Z,20.50
2018-03-06T16:38:49.030Z,20.30
2018-03-06T16:41:16.475Z,18.90
2018-03-06T16:43:43.999Z,19.10
2018-03-06T16:46:12.079Z,19.60
2018-03-06T16:48:39.522Z,20.30
2018-03-06T16:51:07.808Z,24.00
2018-03-06T16:53:35.300Z,21.30
2018-03-06T16:56:02.817Z,22.83
2018-03-06T16:58:33.580Z,22.93
2018-03-06T17:01:01.131Z,25.17
2018-03-06T17:03:28.595Z,25.30
2018-03-06T17:05:56.751Z,24.60
2018-03-06T17:08:24.200Z,25.53
2018-03-06T17:10:51.643Z,26.27
2018-03-06T17:13:19.972Z,24.83
2018-03-06T17:15:49.639Z,24.80
2018-03-06T17:18:18.108Z,25.63
2018-03-06T17:20:45.554Z,25.90
2018-03-06T17:23:13.931Z,26.33
2018-03-06T17:25:41.435Z,26.70
2018-03-06T17:28:09.596Z,24.93
2018-03-06T17:30:37.043Z,28.20
2018-03-06T17:33:04.490Z,27.13
2018-03-06T17:35:31.963Z,27.63
2018-03-06T17:38:00.602Z,30.07
2018-03-06T17:40:28.050Z,30.23
2018-03-06T17:42:56.059Z,34.77
2018-03-06T17:45:23.620Z,39.23
2018-03-06T17:47:51.658Z,33.20
2018-03-06T17:50:19.111Z,29.20
2018-03-06T17:52:46.568Z,30.20
2018-03-06T17:55:14.011Z,29.70
2018-03-06T17:57:41.455Z,27.63
2018-03-06T18:00:08.905Z,26.00
2018-03-06T18:02:36.383Z,25.30
2018-03-06T18:05:03.831Z,25.93
2018-03-06T18:07:31.288Z,26.60
2018-03-06T18:09:58.723Z,28.23
2018-03-06T18:12:26.170Z,29.67
2018-03-06T18:14:53.612Z,25.90
2018-03-06T18:17:21.063Z,27.40
2018-03-06T18:19:48.512Z,24.53
2018-03-06T18:22:15.964Z,27.67
2018-03-06T18:24:43.431Z,32.67
2018-03-06T18:27:11.547Z,39.87
2018-03-06T18:29:39.035Z,34.13
2018-03-06T18:32:06.537Z,30.77
2018-03-06T18:34:34.124Z,27.53
2018-03-06T18:37:01.651Z,31.73
2018-03-06T18:39:29.148Z,28.40
2018-03-06T18:41:56.625Z,29.40
2018-03-06T18:44:24.095Z,28.60
2018-03-06T18:46:51.543Z,30.23
2018-03-06T18:49:19.092Z,27.87
2018-03-06T18:51:46.542Z,27.10
2018-03-06T18:54:14.053Z,25.40
2018-03-06T18:56:41.501Z,26.00
2018-03-06T18:59:08.987Z,27.03
2018-03-06T19:01:58.191Z,24.77
2018-03-06T19:04:37.412Z,23.27
2018-03-06T19:07:07.780Z,27.00
2018-03-06T19:09:35.247Z,25.47
2018-03-06T19:12:02.718Z,24.63
2018-03-06T19:14:31.606Z,25.70
2018-03-06T19:17:03.307Z,25.07
2018-03-06T19:19:31.737Z,26.50
2018-03-06T19:22:00.276Z,26.60
2018-03-06T19:24:29.818Z,25.80
2018-03-06T19:26:58.039Z,25.40
2018-03-06T19:29:25.515Z,24.30
2018-03-06T19:31:53.515Z,25.73
2018-03-06T19:34:20.955Z,24.57
2018-03-06T19:36:48.380Z,26.10
2018-03-06T19:39:15.840Z,26.13
2018-03-06T19:41:43.248Z,26.33
2018-03-06T19:44:10.727Z,25.60
2018-03-06T19:46:38.151Z,25.07
2018-03-06T19:49:05.571Z,24.00
2018-03-06T19:51:33.214Z,25.47
2018-03-06T19:54:00.728Z,25.60
2018-03-06T19:56:28.156Z,25.83
2018-03-06T19:58:55.569Z,23.00
2018-03-06T20:01:23.034Z,25.87
2018-03-06T20:03:50.526Z,26.43
2018-03-06T20:06:17.948Z,25.87
2018-03-06T20:08:45.410Z,25.53
2018-03-06T20:11:12.834Z,26.80
2018-03-06T20:13:40.276Z,25.27
2018-03-06T20:16:07.690Z,26.90
2018-03-06T20:18:35.115Z,24.90
2018-03-06T20:21:02.538Z,25.07
2018-03-06T20:23:29.951Z,24.60
2018-03-06T20:26:00.153Z,26.77
2018-03-06T20:28:27.572Z,27.53
2018-03-06T20:31:00.617Z,27.37
2018-03-06T20:33:28.037Z,27.90
2018-03-06T20:35:55.453Z,28.37
2018-03-06T20:38:28.246Z,29.57
2018-03-06T20:40:55.660Z,27.90
2018-03-06T20:43:23.083Z,28.20
2018-03-06T20:45:56.139Z,29.10
2018-03-06T20:48:23.555Z,28.73
2018-03-06T20:50:50.966Z,28.80
2018-03-06T20:56:22.198Z,29.10
2018-03-06T20:58:49.619Z,28.70
2018-03-06T21:01:17.030Z,28.03
2018-03-06T21:03:44.443Z,28.60
2018-03-06T21:06:11.870Z,28.13
2018-03-06T21:08:39.286Z,27.73
2018-03-06T21:11:06.702Z,29.93
2018-03-06T21:13:34.122Z,28.20
2018-03-06T21:16:01.538Z,28.80
2018-03-06T21:18:28.955Z,28.10
2018-03-06T21:20:56.366Z,28.80
2018-03-06T21:23:23.775Z,28.40
2018-03-06T21:25:51.199Z,28.73
2018-03-06T21:28:18.602Z,30.20
2018-03-06T21:30:46.189Z,29.00
2018-03-06T21:33:13.602Z,29.97
2018-03-06T21:35:41.042Z,28.37
2018-03-06T21:38:08.454Z,30.67
2018-03-06T21:40:35.893Z,30.50
2018-03-06T21:43:03.318Z,29.33
2018-03-06T21:45:30.758Z,29.03
2018-03-06T21:47:58.178Z,29.20
2018-03-06T21:50:25.590Z,28.90
2018-03-06T21:52:53.009Z,28.03
2018-03-06T21:55:20.417Z,28.43
2018-03-06T21:57:47.837Z,29.07
2018-03-06T22:00:15.248Z,28.17
2018-03-06T22:02:42.666Z,28.70
2018-03-06T22:05:10.082Z,28.30
2018-03-06T22:07:37.505Z,29.60
2018-03-06T22:10:04.913Z,29.50
2018-03-06T22:12:32.330Z,28.67
2018-03-06T22:14:59.742Z,28.03
2018-03-06T22:17:27.223Z,29.30
2018-03-06T22:19:54.625Z,28.00
2018-03-06T22:22:22.064Z,31.10
2018-03-06T22:24:49.475Z,29.30
2018-03-06T22:27:16.890Z,30.23
2018-03-06T22:29:44.302Z,30.23
2018-03-06T22:32:11.718Z,27.20
2018-03-06T22:34:39.140Z,30.43
2018-03-06T22:37:06.541Z,28.77
2018-03-06T22:39:33.957Z,29.40
2018-03-06T22:42:01.376Z,29.30
2018-03-06T22:44:28.792Z,29.47
2018-03-06T22:46:56.206Z,30.80
2018-03-06T22:49:23.631Z,31.57
2018-03-06T22:51:51.033Z,32.43
2018-03-06T22:54:18.457Z,31.87
2018-03-06T22:56:45.859Z,34.27
2018-03-06T22:59:13.275Z,33.60
2018-03-06T23:01:40.678Z,32.60
2018-03-06T23:04:08.090Z,33.57
2018-03-06T23:06:35.509Z,32.50
2018-03-06T23:09:02.905Z,32.30
2018-03-06T23:11:30.318Z,32.53
2018-03-06T23:13:57.741Z,30.90
2018-03-06T23:16:25.149Z,31.60
2018-03-06T23:18:52.561Z,32.80
2018-03-06T23:21:19.970Z,32.33
2018-03-06T23:23:47.378Z,35.20
2018-03-06T23:26:14.789Z,34.33
2018-03-06T23:28:42.238Z,36.60
2018-03-06T23:31:09.646Z,38.70
2018-03-06T23:33:37.055Z,36.87
2018-03-06T23:36:04.481Z,34.73
2018-03-06T23:38:31.903Z,36.00
2018-03-06T23:40:59.314Z,33.03
2018-03-06T23:43:26.722Z,37.63
2018-03-06T23:45:54.122Z,38.17
2018-03-06T23:48:21.537Z,36.37
2018-03-06T23:50:48.946Z,38.00
2018-03-06T23:53:16.366Z,34.40
2018-03-06T23:55:43.786Z,34.87
2018-03-06T23:58:11.189Z,35.70
